createdAt,value
2023-03-29T06:22:20.205Z,6.03
2023-03-29T06:58:38.642Z,7.25
2023-03-29T07:20:40.778Z,7.15
2023-03-29T07:44:29.586Z,11.55
2023-03-29T07:46:56.226Z,9.18
2023-03-29T07:49:22.931Z,8.20
2023-03-29T07:51:49.849Z,10.15
2023-03-29T07:54:16.503Z,11.35
2023-03-29T07:56:43.354Z,11.43
2023-03-29T07:59:10.592Z,10.50
2023-03-29T08:01:37.138Z,9.85
2023-03-29T08:04:06.866Z,10.65
2023-03-29T08:06:34.296Z,13.65
2023-03-29T08:09:03.036Z,11.65
2023-03-29T08:11:30.178Z,12.32
2023-03-29T08:13:59.148Z,13.00
2023-03-29T08:16:27.665Z,13.68
2023-03-29T08:18:54.269Z,11.90
2023-03-29T08:21:22.775Z,14.57
2023-03-29T08:23:49.465Z,13.88
2023-03-29T08:26:16.152Z,14.52
2023-03-29T08:28:44.276Z,12.32
2023-03-29T08:31:11.421Z,14.82
2023-03-29T08:33:38.401Z,16.38
2023-03-29T08:36:05.470Z,17.17
2023-03-29T08:38:32.070Z,10.98
2023-03-29T08:40:58.623Z,14.98
2023-03-29T08:43:51.571Z,14.70
2023-03-29T08:46:43.202Z,16.10
2023-03-29T08:49:12.190Z,13.38
2023-03-29T08:51:46.320Z,15.15
2023-03-29T08:54:17.204Z,16.90
2023-03-29T08:56:46.510Z,15.50
2023-03-29T08:59:19.749Z,12.60
2023-03-29T09:01:49.298Z,12.88
2023-03-29T09:04:23.362Z,14.48
2023-03-29T09:06:50.198Z,17.52
2023-03-29T09:09:20.202Z,15.32
2023-03-29T09:11:52.814Z,16.27
2023-03-29T09:14:36.884Z,15.63
2023-03-29T09:17:09.078Z,12.73
2023-03-29T09:19:47.743Z,14.30
2023-03-29T09:22:28.115Z,12.73
2023-03-29T09:24:54.693Z,13.23
2023-03-29T09:27:27.292Z,13.55
2023-03-29T09:30:26.347Z,16.38
2023-03-29T09:33:11.088Z,14.73
2023-03-29T09:35:43.482Z,12.75
2023-03-29T09:38:13.484Z,13.98
2023-03-29T09:40:44.034Z,12.88
2023-03-29T09:43:14.232Z,13.32
2023-03-29T09:45:41.474Z,13.73
2023-03-29T09:48:16.062Z,13.90
2023-03-29T09:50:46.881Z,14.13
2023-03-29T09:53:15.452Z,13.98
2023-03-29T09:55:43.534Z,13.88
2023-03-29T09:58:16.292Z,12.18
2023-03-29T10:00:43.364Z,14.57
2023-03-29T10:03:10.959Z,14.32
2023-03-29T10:05:38.353Z,12.63
2023-03-29T10:08:22.227Z,14.20
2023-03-29T10:10:49.048Z,14.13
2023-03-29T10:13:23.263Z,13.90
2023-03-29T10:15:58.482Z,11.88
2023-03-29T10:18:27.087Z,14.05
2023-03-29T10:21:00.180Z,14.82
2023-03-29T10:23:33.995Z,13.27
2023-03-29T10:26:06.552Z,13.38
2023-03-29T10:28:36.361Z,15.73
2023-03-29T10:31:06.011Z,12.55
2023-03-29T10:33:34.932Z,13.88
2023-03-29T10:36:05.396Z,15.88
2023-03-29T10:38:32.065Z,15.10
2023-03-29T10:41:08.028Z,13.55
2023-03-29T10:46:23.814Z,18.33
2023-03-29T10:48:57.972Z,16.95
2023-03-29T10:51:27.773Z,14.48
2023-03-29T10:53:54.370Z,15.18
2023-03-29T10:56:37.229Z,14.20
2023-03-29T10:59:29.674Z,13.32
2023-03-29T12:32:04.378Z,16.52
2023-03-29T13:27:45.850Z,13.43
2023-03-29T13:31:10.716Z,12.93
2023-03-29T13:34:54.838Z,14.85
2023-03-29T13:38:40.694Z,13.98
2023-03-29T23:43:21.227Z,7.75
2023-03-29T23:45:47.655Z,7.55
2023-03-29T23:48:14.369Z,7.70
2023-03-29T23:50:40.789Z,7.38
2023-03-29T23:53:07.181Z,8.10
2023-03-29T23:55:33.578Z,5.80
2023-03-29T23:58:00.008Z,5.97
